Time;durP1;ratioP1;P1;durP2;ratioP2;P2;SDS_P1;SDS_P2;PMS_P1;PMS_P2;Temp;Humidity;BMP_temperature;BMP_pressure;BME280_temperature;BME280_humidity;BME280_pressure;Samples;Min_cycle;Max_cycle;Signal;HPM_P1;HPM_P2
2021/08/07 00:01:29;;;;;;;9.67;3.90;;;22.10;46.60;;;;;;5115642;28;20930;-86
2021/08/07 00:03:56;;;;;;;9.50;4.30;;;22.00;46.40;;;;;;5114868;28;20881;-86
2021/08/07 00:06:23;;;;;;;7.83;4.43;;;21.80;47.40;;;;;;5115043;28;20529;-86
2021/08/07 00:08:51;;;;;;;8.70;3.63;;;21.60;47.80;;;;;;5115061;28;20858;-86
2021/08/07 00:11:18;;;;;;;5.67;3.97;;;21.80;48.80;;;;;;5118397;28;20489;-86
2021/08/07 00:13:45;;;;;;;7.10;4.37;;;21.70;48.40;;;;;;5116890;28;20489;-86
2021/08/07 00:16:12;;;;;;;6.23;4.27;;;22.00;48.20;;;;;;5114650;28;20453;-87
2021/08/07 00:18:41;;;;;;;11.33;3.80;;;22.00;47.60;;;;;;5117960;28;20506;-86
2021/08/07 00:21:07;;;;;;;8.10;3.90;;;22.00;47.90;;;;;;5120375;28;20514;-86
2021/08/07 00:23:34;;;;;;;12.87;4.00;;;21.80;48.00;;;;;;5114354;28;20477;-86
2021/08/07 00:26:01;;;;;;;8.30;4.57;;;21.50;47.10;;;;;;5115484;28;20483;-86
2021/08/07 00:28:28;;;;;;;8.40;3.67;;;21.20;47.60;;;;;;5114971;28;20528;-86
2021/08/07 00:30:55;;;;;;;11.33;4.07;;;20.60;49.00;;;;;;5114781;28;20906;-86
2021/08/07 00:33:22;;;;;;;6.80;3.70;;;21.20;50.00;;;;;;5114386;28;20476;-86
2021/08/07 00:35:50;;;;;;;5.70;3.50;;;21.20;49.70;;;;;;5114595;28;20464;-86
2021/08/07 00:38:17;;;;;;;6.97;3.80;;;21.60;49.50;;;;;;5114679;28;20759;-86
2021/08/07 00:40:44;;;;;;;9.47;4.17;;;21.80;48.70;;;;;;5112825;28;20517;-86
2021/08/07 00:43:11;;;;;;;7.60;4.77;;;21.50;47.30;;;;;;5114383;28;20544;-86
2021/08/07 00:45:39;;;;;;;9.23;3.43;;;21.40;47.80;;;;;;5114461;28;20857;-86
2021/08/07 00:48:08;;;;;;;9.43;4.50;;;21.40;49.00;;;;;;5113147;28;20540;-86
2021/08/07 00:50:35;;;;;;;14.60;4.20;;;21.60;48.40;;;;;;5114789;28;20591;-86
2021/08/07 00:53:05;;;;;;;12.70;4.50;;;21.80;48.80;;;;;;5113996;28;20500;-86
2021/08/07 00:55:32;;;;;;;7.80;4.30;;;22.00;48.80;;;;;;5128109;28;20455;-86
2021/08/07 00:57:59;;;;;;;9.30;4.10;;;21.80;47.60;;;;;;5138019;28;20441;-86
2021/08/07 01:00:26;;;;;;;13.73;3.57;;;21.80;48.10;;;;;;5137650;27;20438;-86
2021/08/07 01:03:01;;;;;;;14.07;4.00;;;21.70;49.00;;;;;;5136545;28;20473;-86
2021/08/07 01:05:35;;;;;;;10.83;3.40;;;21.70;48.00;;;;;;5137616;28;20418;-86
2021/08/07 01:08:14;;;;;;;6.07;3.70;;;21.80;47.60;;;;;;5136525;28;20406;-86
2021/08/07 01:10:46;;;;;;;12.80;4.30;;;21.80;47.50;;;;;;5130157;28;20488;-86
2021/08/07 01:13:18;;;;;;;5.13;3.50;;;21.60;47.90;;;;;;5130677;28;20465;-86
2021/08/07 01:15:50;;;;;;;14.03;3.70;;;21.50;48.00;;;;;;5133928;28;20437;-86
2021/08/07 01:18:20;;;;;;;11.00;4.30;;;21.40;48.80;;;;;;5131277;28;20430;-86
2021/08/07 01:20:50;;;;;;;4.80;3.23;;;21.40;48.40;;;;;;5115440;28;20524;-86
2021/08/07 01:23:33;;;;;;;8.80;3.97;;;21.60;48.40;;;;;;5116597;28;20469;-86
2021/08/07 01:26:07;;;;;;;4.73;3.23;;;21.70;48.30;;;;;;5115897;28;20432;-86
2021/08/07 01:28:39;;;;;;;10.57;4.07;;;21.80;48.10;;;;;;5116379;28;20516;-86
2021/08/07 01:31:09;;;;;;;7.60;3.70;;;21.90;47.50;;;;;;5118792;28;20462;-86
2021/08/07 01:33:37;;;;;;;6.63;3.47;;;21.80;48.40;;;;;;5119298;28;20471;-86
2021/08/07 01:36:05;;;;;;;4.03;3.17;;;21.50;47.70;;;;;;5118871;28;20456;-86
2021/08/07 01:38:31;;;;;;;7.00;3.80;;;21.40;48.60;;;;;;5116746;28;20528;-86
2021/08/07 01:40:59;;;;;;;7.97;3.50;;;21.30;48.20;;;;;;5116908;28;20442;-87
2021/08/07 01:43:26;;;;;;;5.50;3.20;;;21.30;49.40;;;;;;5115281;28;20534;-86
2021/08/07 01:45:54;;;;;;;6.13;3.17;;;21.30;48.30;;;;;;5116549;28;20484;-87
2021/08/07 01:48:29;;;;;;;8.47;3.40;;;21.00;49.20;;;;;;5115545;28;20486;-86
2021/08/07 01:51:08;;;;;;;5.60;3.03;;;21.10;48.90;;;;;;5118225;28;20495;-86
2021/08/07 01:53:36;;;;;;;7.70;3.17;;;21.00;48.40;;;;;;5119008;28;20489;-86
2021/08/07 01:56:06;;;;;;;6.50;3.40;;;21.30;49.50;;;;;;5119864;28;20453;-86
2021/08/07 01:58:35;;;;;;;6.03;3.63;;;21.70;49.10;;;;;;5119887;28;20915;-86
2021/08/07 02:01:03;;;;;;;4.30;2.97;;;21.90;48.70;;;;;;5120142;28;20478;-86
2021/08/07 02:03:32;;;;;;;7.83;3.70;;;22.00;49.10;;;;;;5119301;28;21013;-86
2021/08/07 02:06:00;;;;;;;3.67;2.87;;;21.80;48.40;;;;;;5118711;28;20447;-86
2021/08/07 02:08:27;;;;;;;5.00;3.00;;;22.00;48.70;;;;;;5119911;28;20479;-86
2021/08/07 02:10:57;;;;;;;5.67;3.13;;;22.10;48.30;;;;;;5122261;28;20469;-86
2021/08/07 02:13:25;;;;;;;11.17;3.50;;;22.10;48.30;;;;;;5120580;28;20525;-86
2021/08/07 02:15:54;;;;;;;6.70;3.13;;;22.10;47.40;;;;;;5100135;28;20427;-86
2021/08/07 02:18:24;;;;;;;7.97;3.30;;;22.10;47.80;;;;;;5097163;28;20483;-86
2021/08/07 02:20:53;;;;;;;11.73;3.37;;;22.10;47.80;;;;;;5097917;28;20459;-86
2021/08/07 02:23:20;;;;;;;9.23;3.40;;;22.00;48.10;;;;;;5096954;28;20532;-86
2021/08/07 02:25:52;;;;;;;4.50;2.70;;;22.00;47.70;;;;;;5095919;28;20451;-86
2021/08/07 02:28:20;;;;;;;7.23;3.60;;;22.20;48.30;;;;;;5097305;28;20605;-86
2021/08/07 02:30:47;;;;;;;6.60;3.23;;;22.20;47.10;;;;;;5096679;28;20474;-86
2021/08/07 02:33:17;;;;;;;6.83;3.30;;;22.00;48.00;;;;;;5096315;28;20525;-86
2021/08/07 02:35:47;;;;;;;11.33;3.67;;;22.10;47.70;;;;;;5096297;28;20483;-86
2021/08/07 02:38:15;;;;;;;4.87;3.20;;;22.30;47.00;;;;;;5096172;28;20448;-86
2021/08/07 02:40:42;;;;;;;5.30;3.10;;;22.40;47.20;;;;;;5096172;28;20540;-86
2021/08/07 02:43:10;;;;;;;7.70;3.00;;;22.40;46.70;;;;;;5096275;28;20474;-86
2021/08/07 02:45:37;;;;;;;6.10;3.37;;;22.30;47.20;;;;;;5096428;28;20450;-86
2021/08/07 02:48:05;;;;;;;6.40;2.90;;;22.20;46.50;;;;;;5096440;28;20537;-86
2021/08/07 02:50:32;;;;;;;9.10;3.50;;;22.10;48.20;;;;;;5096008;28;20451;-86
2021/08/07 02:53:01;;;;;;;8.43;3.20;;;22.10;48.00;;;;;;5096103;28;20941;-86
2021/08/07 02:55:28;;;;;;;8.47;2.83;;;22.20;47.30;;;;;;5096113;28;20438;-86
2021/08/07 02:57:56;;;;;;;4.43;2.97;;;22.30;47.20;;;;;;5096934;28;20468;-86
2021/08/07 03:00:23;;;;;;;7.00;3.37;;;22.30;47.70;;;;;;5097176;28;20446;-86
2021/08/07 03:02:50;;;;;;;4.97;2.90;;;22.40;47.30;;;;;;5095596;28;20492;-86
2021/08/07 03:05:20;;;;;;;5.30;3.00;;;22.50;46.80;;;;;;5097582;28;20458;-86
2021/08/07 03:07:47;;;;;;;4.80;2.73;;;22.50;46.80;;;;;;5098441;28;20542;-86
2021/08/07 03:10:16;;;;;;;7.33;3.13;;;22.60;46.90;;;;;;5101561;28;20924;-87
2021/08/07 03:12:44;;;;;;;3.87;2.97;;;22.20;46.20;;;;;;5103980;28;20548;-87
2021/08/07 03:15:12;;;;;;;5.10;2.90;;;21.80;46.20;;;;;;5103698;28;20826;-86
2021/08/07 03:17:39;;;;;;;12.90;3.57;;;20.70;48.70;;;;;;5105707;28;20469;-86
2021/08/07 03:20:08;;;;;;;10.90;3.67;;;20.10;51.00;;;;;;5106260;28;20478;-86
2021/08/07 03:22:35;;;;;;;15.97;3.50;;;19.80;51.60;;;;;;5105641;28;20543;-86
2021/08/07 03:25:02;;;;;;;14.70;3.50;;;19.80;51.50;;;;;;5102263;28;20439;-86
2021/08/07 03:27:30;;;;;;;3.97;2.90;;;20.20;51.80;;;;;;5099861;28;20435;-86
2021/08/07 03:29:58;;;;;;;6.07;2.97;;;20.60;51.10;;;;;;5100653;28;20468;-86
2021/08/07 03:32:25;;;;;;;8.97;3.67;;;21.00;49.60;;;;;;5101385;28;20517;-86
2021/08/07 03:34:52;;;;;;;5.43;3.40;;;20.60;49.30;;;;;;5117341;28;20461;-85
2021/08/07 03:37:19;;;;;;;7.47;3.40;;;20.60;50.00;;;;;;5119412;28;20449;-84
2021/08/07 03:39:46;;;;;;;11.70;3.77;;;20.60;51.30;;;;;;5119175;28;20458;-85
2021/08/07 03:42:13;;;;;;;4.43;3.00;;;21.00;50.40;;;;;;5106993;28;20455;-86
2021/08/07 03:44:41;;;;;;;14.40;3.80;;;21.20;50.00;;;;;;5112151;28;20453;-84
2021/08/07 03:47:08;;;;;;;6.83;3.10;;;21.20;49.10;;;;;;5119117;28;20473;-85
2021/08/07 03:49:35;;;;;;;12.20;2.97;;;21.20;50.00;;;;;;5119189;28;20446;-85
2021/08/07 03:52:02;;;;;;;6.80;3.30;;;21.50;49.20;;;;;;5118771;28;20474;-84
2021/08/07 03:54:29;;;;;;;7.60;3.40;;;21.70;48.30;;;;;;5109571;28;20436;-87
2021/08/07 03:56:56;;;;;;;5.87;3.17;;;21.50;48.00;;;;;;5096573;28;20470;-88
2021/08/07 03:59:22;;;;;;;7.80;3.37;;;21.60;49.00;;;;;;5096576;28;20461;-86
2021/08/07 04:01:51;;;;;;;6.50;2.90;;;21.60;47.60;;;;;;5098799;28;20533;-87
2021/08/07 04:04:18;;;;;;;6.57;3.17;;;21.40;47.90;;;;;;5097442;28;20525;-87
2021/08/07 04:06:45;;;;;;;7.80;3.30;;;20.90;49.20;;;;;;5095820;28;20504;-87
2021/08/07 04:09:13;;;;;;;4.00;2.83;;;21.00;50.20;;;;;;5096495;28;20478;-87
2021/08/07 04:11:40;;;;;;;5.40;3.27;;;21.00;49.50;;;;;;5099332;28;20482;-87
2021/08/07 04:14:07;;;;;;;7.17;3.53;;;20.90;49.00;;;;;;5097308;28;20565;-87
2021/08/07 04:16:35;;;;;;;13.27;3.40;;;20.40;50.30;;;;;;5098466;28;20823;-87
2021/08/07 04:19:03;;;;;;;4.10;3.13;;;20.40;50.50;;;;;;5095552;28;20454;-87
2021/08/07 04:21:30;;;;;;;7.50;3.27;;;20.70;50.00;;;;;;5095816;28;20431;-87
2021/08/07 04:23:57;;;;;;;10.57;4.17;;;20.60;50.20;;;;;;5095050;28;20463;-87
2021/08/07 04:26:24;;;;;;;7.40;3.67;;;20.90;49.70;;;;;;5095197;28;20525;-87
2021/08/07 04:28:50;;;;;;;6.37;2.87;;;21.10;49.40;;;;;;5094666;28;20537;-87
2021/08/07 04:31:17;;;;;;;5.07;2.80;;;21.20;49.70;;;;;;5096113;28;20473;-87
2021/08/07 04:33:44;;;;;;;7.43;4.10;;;21.40;49.80;;;;;;5103188;28;20486;-87
2021/08/07 04:36:12;;;;;;;7.97;3.97;;;21.50;48.10;;;;;;5109897;28;20575;-87
2021/08/07 04:38:39;;;;;;;5.07;3.20;;;21.10;48.20;;;;;;5106779;28;20525;-88
2021/08/07 04:41:06;;;;;;;5.73;3.50;;;21.00;49.60;;;;;;5101560;28;20427;-86
2021/08/07 04:43:34;;;;;;;14.27;3.77;;;21.30;49.10;;;;;;5097997;28;20493;-86
2021/08/07 04:46:01;;;;;;;10.20;3.53;;;21.20;49.60;;;;;;5097174;28;20454;-86
2021/08/07 04:48:28;;;;;;;6.20;3.17;;;21.20;49.30;;;;;;5097820;28;20439;-86
2021/08/07 04:50:54;;;;;;;9.37;3.33;;;21.20;49.30;;;;;;5094482;28;20482;-86
2021/08/07 04:53:23;;;;;;;10.50;3.87;;;21.50;48.80;;;;;;5094019;28;20485;-86
2021/08/07 04:55:49;;;;;;;12.40;3.77;;;21.40;48.50;;;;;;5102370;28;20482;-87
2021/08/07 04:58:17;;;;;;;7.43;3.43;;;21.00;48.80;;;;;;5103856;28;20433;-87
2021/08/07 05:00:44;;;;;;;5.17;3.47;;;21.30;49.70;;;;;;5114004;28;20435;-87
2021/08/07 05:03:11;;;;;;;7.43;3.23;;;21.70;49.40;;;;;;5117600;28;20480;-85
2021/08/07 05:05:38;;;;;;;3.70;2.50;;;22.10;47.80;;;;;;5117200;28;20446;-86
2021/08/07 05:08:05;;;;;;;14.50;3.50;;;21.90;47.90;;;;;;5111037;28;20559;-86
2021/08/07 05:10:33;;;;;;;7.83;3.77;;;21.30;48.40;;;;;;5111021;28;20446;-86
2021/08/07 05:13:00;;;;;;;5.37;3.40;;;21.40;47.80;;;;;;5099252;28;20929;-86
2021/08/07 05:15:27;;;;;;;9.87;3.97;;;21.10;48.50;;;;;;5093928;28;20474;-86
2021/08/07 05:17:54;;;;;;;5.43;2.90;;;21.20;48.70;;;;;;5103717;28;20445;-86
2021/08/07 05:20:21;;;;;;;11.57;4.03;;;21.20;49.90;;;;;;5116886;28;20505;-87
2021/08/07 05:22:48;;;;;;;10.00;3.30;;;21.30;48.30;;;;;;5113473;28;20463;-87
2021/08/07 05:25:15;;;;;;;7.63;4.20;;;21.30;48.80;;;;;;5113062;28;20426;-87
2021/08/07 05:27:44;;;;;;;5.60;3.20;;;21.50;48.80;;;;;;5102404;28;20540;-87
2021/08/07 05:30:13;;;;;;;6.03;3.37;;;21.70;48.00;;;;;;5099695;28;20477;-86
2021/08/07 05:32:40;;;;;;;4.40;3.30;;;21.60;48.30;;;;;;5100105;28;20486;-86
2021/08/07 05:35:08;;;;;;;14.17;3.20;;;21.90;48.80;;;;;;5099516;28;20450;-86
2021/08/07 05:37:39;;;;;;;8.53;3.47;;;22.30;47.40;;;;;;5097700;28;20446;-86
2021/08/07 05:40:07;;;;;;;9.10;3.50;;;22.50;46.80;;;;;;5097306;28;20826;-86
2021/08/07 05:42:34;;;;;;;11.67;3.50;;;22.80;49.60;;;;;;5097008;28;21097;-86
2021/08/07 05:45:03;;;;;;;23.20;3.97;;;23.30;46.30;;;;;;5097338;28;20517;-87
2021/08/07 05:47:30;;;;;;;7.10;3.67;;;24.00;43.30;;;;;;5097065;28;20462;-86
2021/08/07 05:49:56;;;;;;;9.40;3.47;;;24.00;43.10;;;;;;5097191;28;20801;-86
2021/08/07 05:52:24;;;;;;;3.90;3.30;;;23.90;43.00;;;;;;5096497;28;20546;-86
2021/08/07 05:54:51;;;;;;;7.27;3.57;;;23.80;43.70;;;;;;5098360;28;20438;-86
2021/08/07 05:57:18;;;;;;;8.60;3.13;;;23.50;44.00;;;;;;5098755;28;20430;-86
2021/08/07 05:59:45;;;;;;;7.23;3.30;;;23.10;44.90;;;;;;5096777;28;20447;-86
2021/08/07 06:02:14;;;;;;;17.67;3.10;;;22.80;45.60;;;;;;5096569;28;20515;-86
2021/08/07 06:04:41;;;;;;;27.80;3.20;;;22.60;46.40;;;;;;5127078;28;20446;-86
2021/08/07 06:07:07;;;;;;;13.80;3.43;;;22.40;46.70;;;;;;5136600;28;20445;-86
2021/08/07 06:09:34;;;;;;;6.93;3.47;;;22.40;46.70;;;;;;5135046;28;20445;-86
2021/08/07 06:12:01;;;;;;;7.10;3.27;;;22.10;47.30;;;;;;5126752;28;20489;-86
2021/08/07 06:14:29;;;;;;;6.30;3.50;;;22.40;48.10;;;;;;5122065;28;20771;-86
2021/08/07 06:16:57;;;;;;;8.27;3.00;;;22.50;48.10;;;;;;5118900;28;20586;-86
2021/08/07 06:19:25;;;;;;;11.20;3.60;;;23.20;47.40;;;;;;5117508;28;20457;-86
2021/08/07 06:21:52;;;;;;;13.87;3.40;;;24.30;47.20;;;;;;5119546;28;20479;-86
2021/08/07 06:24:19;;;;;;;10.57;3.37;;;25.70;42.30;;;;;;5121062;28;20442;-86
2021/08/07 06:26:46;;;;;;;8.63;3.57;;;26.30;39.30;;;;;;5120892;28;20481;-86
2021/08/07 06:29:13;;;;;;;8.40;3.10;;;26.00;39.20;;;;;;5117005;28;20457;-86
2021/08/07 06:31:40;;;;;;;6.67;3.30;;;25.50;40.20;;;;;;5118014;28;20441;-86
2021/08/07 06:34:06;;;;;;;5.70;3.00;;;25.20;41.00;;;;;;5116817;28;20888;-86
2021/08/07 06:36:35;;;;;;;7.40;2.93;;;25.40;43.90;;;;;;5115534;28;20441;-86
2021/08/07 06:39:02;;;;;;;16.97;3.33;;;26.50;41.50;;;;;;5115780;28;20987;-86
2021/08/07 06:41:30;;;;;;;8.47;2.80;;;28.20;36.50;;;;;;5117009;28;20479;-86
2021/08/07 06:43:57;;;;;;;8.77;2.40;;;29.70;34.10;;;;;;5116690;28;20497;-86
2021/08/07 06:46:23;;;;;;;15.33;3.07;;;30.10;32.50;;;;;;5116880;28;20476;-86
2021/08/07 06:48:50;;;;;;;9.03;2.90;;;30.20;32.80;;;;;;5117057;28;20448;-86
2021/08/07 06:51:17;;;;;;;4.27;2.27;;;30.20;31.30;;;;;;5116901;28;20541;-87
2021/08/07 06:53:46;;;;;;;4.73;2.60;;;30.20;30.30;;;;;;5116836;28;20576;-86
2021/08/07 06:56:13;;;;;;;4.17;2.47;;;30.30;30.30;;;;;;5117422;28;20481;-86
2021/08/07 06:58:40;;;;;;;8.57;2.43;;;30.00;30.20;;;;;;5117453;28;20488;-86
2021/08/07 07:01:07;;;;;;;5.67;2.20;;;30.50;30.50;;;;;;5122744;28;20454;-87
2021/08/07 07:03:33;;;;;;;5.90;2.50;;;31.20;31.00;;;;;;5123240;28;20493;-87
2021/08/07 07:06:00;;;;;;;10.30;2.90;;;32.20;29.30;;;;;;5122177;28;20477;-87
2021/08/07 07:08:27;;;;;;;5.50;2.50;;;32.00;28.00;;;;;;5119757;28;20437;-86
2021/08/07 07:10:56;;;;;;;3.77;2.40;;;31.00;29.00;;;;;;5118188;28;20498;-86
2021/08/07 07:13:23;;;;;;;6.67;2.73;;;30.50;29.60;;;;;;5120075;28;20504;-86
2021/08/07 07:15:50;;;;;;;2.80;2.20;;;29.50;30.40;;;;;;5139231;22;20536;-84
2021/08/07 07:18:16;;;;;;;5.87;2.50;;;28.80;32.10;;;;;;5111398;28;20450;-84
2021/08/07 07:20:43;;;;;;;4.87;2.70;;;28.40;33.00;;;;;;5115801;28;20532;-85
2021/08/07 07:23:12;;;;;;;4.37;2.73;;;27.40;34.90;;;;;;5116028;28;20807;-84
2021/08/07 07:25:39;;;;;;;6.57;3.13;;;26.90;35.60;;;;;;5115844;28;20530;-84
2021/08/07 07:28:07;;;;;;;5.90;2.67;;;27.10;35.50;;;;;;5115937;28;20481;-84
2021/08/07 07:30:34;;;;;;;4.70;2.47;;;27.00;35.70;;;;;;5115200;28;20445;-84
2021/08/07 07:33:01;;;;;;;7.50;2.63;;;27.20;36.50;;;;;;5115600;28;20538;-84
2021/08/07 07:35:29;;;;;;;7.27;2.73;;;27.40;36.00;;;;;;5116165;28;20488;-84
2021/08/07 07:37:56;;;;;;;9.80;2.80;;;27.60;35.00;;;;;;5116231;28;20503;-84
2021/08/07 07:40:23;;;;;;;3.80;2.30;;;27.40;34.20;;;;;;5115952;28;20520;-84
2021/08/07 07:42:50;;;;;;;6.10;2.60;;;27.40;33.80;;;;;;5116344;28;20528;-84
2021/08/07 07:45:18;;;;;;;15.00;3.30;;;27.30;35.60;;;;;;5116209;28;20446;-84
2021/08/07 07:47:45;;;;;;;4.27;2.60;;;27.50;34.50;;;;;;5115897;28;20988;-84
2021/08/07 07:50:13;;;;;;;4.70;2.30;;;27.90;35.60;;;;;;5115963;28;20517;-84
2021/08/07 07:52:40;;;;;;;7.43;3.03;;;27.90;34.00;;;;;;5116129;28;20533;-84
2021/08/07 07:55:08;;;;;;;11.13;5.30;;;28.00;33.80;;;;;;5116742;28;20982;-84
2021/08/07 07:57:35;;;;;;;5.57;3.10;;;28.30;33.30;;;;;;5115877;28;20470;-84
2021/08/07 08:00:02;;;;;;;15.37;2.80;;;28.10;33.30;;;;;;5114503;28;20548;-84
2021/08/07 08:02:30;;;;;;;5.97;2.67;;;28.00;34.80;;;;;;5116020;28;20865;-84
2021/08/07 08:04:57;;;;;;;14.70;2.43;;;27.70;34.30;;;;;;5115988;28;20540;-84
2021/08/07 08:07:24;;;;;;;5.63;2.40;;;27.30;34.80;;;;;;5116555;28;20552;-84
2021/08/07 08:09:51;;;;;;;14.10;2.87;;;27.30;34.90;;;;;;5115884;28;20487;-84
2021/08/07 08:12:18;;;;;;;5.60;2.47;;;27.80;34.70;;;;;;5115929;28;20474;-84
2021/08/07 08:14:45;;;;;;;4.53;2.40;;;28.20;34.40;;;;;;5115939;28;20549;-84
2021/08/07 08:17:12;;;;;;;4.20;2.53;;;29.00;33.70;;;;;;5125679;28;20535;-84
2021/08/07 08:19:41;;;;;;;3.70;2.23;;;29.10;33.60;;;;;;5126278;28;20477;-82
2021/08/07 08:22:08;;;;;;;7.10;2.50;;;29.60;32.40;;;;;;5114367;28;20453;-82
2021/08/07 08:24:35;;;;;;;4.20;2.50;;;29.10;33.10;;;;;;5101066;28;20459;-82
2021/08/07 08:27:02;;;;;;;5.20;2.40;;;28.90;33.40;;;;;;5094839;28;20506;-83
2021/08/07 08:29:29;;;;;;;7.10;2.33;;;28.90;33.50;;;;;;5096924;28;20446;-83
2021/08/07 08:31:55;;;;;;;10.40;2.80;;;28.90;32.60;;;;;;5095404;28;20499;-83
2021/08/07 08:34:22;;;;;;;16.57;3.27;;;28.70;32.80;;;;;;5094614;28;20577;-83
2021/08/07 08:36:50;;;;;;;7.17;2.77;;;28.50;32.90;;;;;;5094527;28;20566;-83
2021/08/07 08:39:17;;;;;;;7.23;2.97;;;28.70;32.80;;;;;;5095081;28;20434;-83
2021/08/07 08:41:45;;;;;;;8.93;2.33;;;28.50;33.50;;;;;;5096254;28;20470;-82
2021/08/07 08:44:14;;;;;;;5.97;2.40;;;28.50;33.00;;;;;;5112863;28;20434;-82
2021/08/07 08:46:43;;;;;;;6.10;2.50;;;28.40;33.60;;;;;;5124803;28;20544;-82
2021/08/07 08:49:10;;;;;;;5.70;2.33;;;28.20;33.60;;;;;;5121174;28;20819;-82
2021/08/07 08:51:37;;;;;;;9.30;3.27;;;28.10;33.60;;;;;;5116310;28;20481;-82
2021/08/07 08:54:06;;;;;;;7.37;3.03;;;28.30;33.00;;;;;;5116031;28;20571;-82
2021/08/07 08:56:34;;;;;;;6.30;3.03;;;28.30;33.00;;;;;;5117182;28;20544;-82
2021/08/07 08:59:02;;;;;;;7.10;3.03;;;28.30;34.50;;;;;;5119616;28;20453;-82
2021/08/07 09:01:29;;;;;;;3.60;2.37;;;28.10;34.50;;;;;;5116859;28;20437;-82
2021/08/07 09:03:56;;;;;;;4.37;2.77;;;27.80;35.20;;;;;;5115163;28;20514;-82
2021/08/07 09:06:23;;;;;;;9.93;2.73;;;27.70;35.40;;;;;;5116752;28;20500;-82
2021/08/07 09:09:01;;;;;;;7.20;2.93;;;27.40;35.90;;;;;;5116598;28;20456;-82
2021/08/07 09:11:30;;;;;;;6.30;2.80;;;27.30;35.90;;;;;;5116060;28;20516;-83
2021/08/07 09:14:18;;;;;;;7.13;3.03;;;27.60;35.80;;;;;;5116199;28;20473;-83
2021/08/07 09:17:07;;;;;;;5.60;3.23;;;27.80;36.70;;;;;;5116700;28;20548;-83
2021/08/07 09:19:57;;;;;;;9.50;3.50;;;27.70;38.00;;;;;;5114489;28;20491;-83
2021/08/07 09:22:27;;;;;;;8.90;2.80;;;27.50;38.90;;;;;;5114157;28;20494;-83
2021/08/07 09:25:07;;;;;;;7.83;3.23;;;27.30;39.90;;;;;;5114282;28;20860;-83
2021/08/07 09:27:38;;;;;;;4.10;2.83;;;27.10;40.40;;;;;;5114056;28;20860;-84
2021/08/07 09:30:24;;;;;;;9.03;3.50;;;26.80;40.90;;;;;;5114436;28;20800;-84
2021/08/07 09:32:53;;;;;;;21.17;3.20;;;26.70;42.00;;;;;;5112181;28;20834;-84
2021/08/07 09:35:21;;;;;;;5.43;2.60;;;26.90;42.60;;;;;;5114048;28;20852;-84
2021/08/07 09:38:07;;;;;;;9.13;3.27;;;26.10;41.10;;;;;;5113920;28;20814;-84
2021/08/07 09:40:46;;;;;;;3.73;2.83;;;24.60;43.00;;;;;;5113592;28;20414;-84
2021/08/07 09:43:17;;;;;;;17.40;3.30;;;23.40;44.10;;;;;;5113983;28;20433;-84
2021/08/07 09:45:44;;;;;;;7.53;3.20;;;22.60;44.20;;;;;;5113813;28;21038;-84
2021/08/07 09:48:13;;;;;;;10.03;3.00;;;22.30;46.60;;;;;;5114255;28;20477;-84
2021/08/07 09:50:42;;;;;;;5.13;2.93;;;22.50;46.80;;;;;;5113805;28;20433;-84
2021/08/07 09:53:19;;;;;;;5.80;3.20;;;22.80;46.60;;;;;;5114515;28;20464;-84
2021/08/07 09:56:03;;;;;;;10.23;4.30;;;23.20;45.90;;;;;;5115661;28;20465;-84
2021/08/07 09:58:32;;;;;;;8.50;2.80;;;23.50;45.20;;;;;;5114375;28;20596;-84
2021/08/07 10:00:59;;;;;;;5.53;2.77;;;23.70;44.60;;;;;;5113651;28;20816;-84
2021/08/07 10:03:29;;;;;;;5.93;2.87;;;23.30;45.60;;;;;;5113892;28;20505;-84
2021/08/07 10:05:57;;;;;;;5.40;2.60;;;23.00;46.50;;;;;;5113913;28;20866;-84
2021/08/07 10:08:24;;;;;;;7.00;2.83;;;22.80;47.50;;;;;;5113623;28;20463;-84
2021/08/07 10:10:53;;;;;;;6.17;3.10;;;22.80;47.60;;;;;;5114441;28;20494;-84
2021/08/07 10:13:20;;;;;;;3.43;2.70;;;22.70;48.00;;;;;;5127473;28;20476;-85
2021/08/07 10:15:49;;;;;;;9.53;2.70;;;23.10;47.30;;;;;;5126065;28;20981;-85
2021/08/07 10:18:18;;;;;;;4.67;2.40;;;23.20;45.80;;;;;;5117660;28;20498;-84
2021/08/07 10:20:45;;;;;;;4.50;2.70;;;23.30;47.10;;;;;;5117353;28;20449;-84
2021/08/07 10:23:11;;;;;;;6.47;2.93;;;23.60;46.00;;;;;;5117863;28;20529;-84
2021/08/07 10:25:45;;;;;;;5.53;3.17;;;24.10;45.70;;;;;;5117577;28;20461;-84
2021/08/07 10:28:13;;;;;;;4.50;3.03;;;24.10;45.30;;;;;;5118117;28;20785;-84
2021/08/07 10:30:44;;;;;;;4.37;2.80;;;24.20;45.10;;;;;;5117098;28;20449;-84
2021/08/07 10:33:13;;;;;;;6.57;3.17;;;24.30;44.80;;;;;;5117815;28;20437;-84
2021/08/07 10:35:42;;;;;;;9.07;3.00;;;24.10;45.40;;;;;;5117169;28;20470;-84
2021/08/07 10:38:09;;;;;;;4.60;2.80;;;23.70;45.70;;;;;;5117318;28;21000;-84
2021/08/07 10:40:36;;;;;;;5.10;3.27;;;23.60;46.60;;;;;;5117159;28;20528;-85
2021/08/07 10:43:04;;;;;;;5.87;2.90;;;23.60;46.30;;;;;;5117072;28;20932;-85
2021/08/07 10:45:31;;;;;;;6.83;2.87;;;23.90;46.40;;;;;;5117008;28;21002;-85
2021/08/07 10:47:58;;;;;;;11.90;2.77;;;24.30;45.40;;;;;;5117499;28;20536;-84
2021/08/07 10:50:35;;;;;;;7.87;3.13;;;24.60;45.40;;;;;;5117474;28;20444;-84
2021/08/07 10:53:03;;;;;;;3.00;2.50;;;24.40;45.20;;;;;;5122395;28;20444;-84
2021/08/07 10:55:53;;;;;;;3.03;2.43;;;24.30;45.50;;;;;;5118469;28;20489;-84
2021/08/07 10:58:41;;;;;;;5.30;2.93;;;24.30;45.60;;;;;;5117478;28;20434;-84
2021/08/07 11:01:27;;;;;;;4.10;2.90;;;24.00;46.20;;;;;;5117012;28;20425;-84
2021/08/07 11:04:11;;;;;;;6.90;2.60;;;23.60;45.90;;;;;;5117379;28;20874;-84
2021/08/07 11:07:15;;;;;;;5.90;2.77;;;23.80;46.80;;;;;;5117013;28;20944;-85
2021/08/07 11:09:42;;;;;;;5.73;3.00;;;23.60;47.80;;;;;;5117938;28;20959;-85
2021/08/07 11:12:20;;;;;;;5.30;3.20;;;23.20;47.40;;;;;;5115877;28;20533;-85
2021/08/07 11:14:54;;;;;;;3.80;2.67;;;23.10;48.10;;;;;;5115584;28;20461;-85
2021/08/07 11:17:51;;;;;;;7.93;3.23;;;23.40;48.50;;;;;;5116223;28;20580;-85
2021/08/07 11:20:42;;;;;;;5.20;3.00;;;23.50;48.10;;;;;;5116090;28;20897;-85
2021/08/07 11:23:15;;;;;;;4.03;3.13;;;23.60;47.80;;;;;;5115771;28;20465;-85
2021/08/07 11:25:58;;;;;;;11.23;3.57;;;23.60;47.80;;;;;;5116222;28;20453;-85
2021/08/07 11:28:25;;;;;;;6.47;2.87;;;23.60;48.80;;;;;;5117119;28;20429;-85
2021/08/07 11:31:14;;;;;;;5.10;3.00;;;23.30;48.70;;;;;;5116409;28;20434;-85
2021/08/07 11:33:40;;;;;;;10.17;3.10;;;23.30;48.30;;;;;;5116478;28;20505;-84
2021/08/07 11:36:10;;;;;;;4.07;2.90;;;23.20;48.60;;;;;;5115987;28;20556;-85
2021/08/07 11:39:02;;;;;;;8.07;3.20;;;23.30;49.40;;;;;;5116260;28;20426;-85
2021/08/07 11:41:31;;;;;;;4.67;2.97;;;23.60;47.80;;;;;;5116049;28;20441;-85
2021/08/07 11:43:58;;;;;;;3.57;2.70;;;23.70;47.90;;;;;;5115990;28;20477;-85
2021/08/07 11:46:37;;;;;;;5.00;3.37;;;24.10;47.80;;;;;;5116090;28;20491;-85
2021/08/07 11:49:06;;;;;;;6.30;3.43;;;24.00;47.80;;;;;;5121182;28;20447;-84
2021/08/07 11:51:34;;;;;;;9.33;3.47;;;23.70;47.90;;;;;;5126190;28;20444;-83
2021/08/07 11:54:02;;;;;;;8.83;3.07;;;24.00;48.20;;;;;;5117251;28;20581;-84
2021/08/07 11:56:42;;;;;;;7.80;3.33;;;24.10;48.30;;;;;;5116833;28;20988;-84
2021/08/07 11:59:09;;;;;;;10.13;3.27;;;24.10;48.30;;;;;;5115434;28;20963;-84
2021/08/07 12:01:38;;;;;;;4.07;3.20;;;24.40;48.50;;;;;;5116075;28;20552;-84
2021/08/07 12:04:06;;;;;;;4.33;3.10;;;24.40;47.00;;;;;;5115841;28;20469;-84
2021/08/07 12:06:35;;;;;;;11.23;3.47;;;24.50;47.50;;;;;;5116743;28;21030;-84
2021/08/07 12:09:10;;;;;;;3.53;2.87;;;24.50;47.80;;;;;;5120250;28;20461;-84
2021/08/07 12:11:38;;;;;;;6.43;3.13;;;24.60;44.70;;;;;;5128926;28;20512;-84
2021/08/07 12:14:05;;;;;;;3.73;3.00;;;24.70;45.60;;;;;;5115730;28;20560;-85
2021/08/07 12:16:34;;;;;;;6.10;2.97;;;24.80;46.80;;;;;;5115082;28;20556;-85
2021/08/07 12:19:04;;;;;;;7.50;3.10;;;24.60;46.40;;;;;;5116517;28;20442;-85
2021/08/07 12:21:34;;;;;;;6.70;2.90;;;24.70;46.10;;;;;;5115423;28;20498;-85
2021/08/07 12:24:05;;;;;;;5.63;2.87;;;24.70;47.70;;;;;;5115710;28;20499;-85
2021/08/07 12:26:41;;;;;;;5.50;2.77;;;24.40;46.10;;;;;;5114945;28;20639;-85
2021/08/07 12:29:10;;;;;;;5.40;2.63;;;24.10;45.70;;;;;;5115020;28;20461;-85
2021/08/07 12:31:38;;;;;;;3.77;2.50;;;24.30;46.20;;;;;;5115649;28;20533;-85
2021/08/07 12:34:12;;;;;;;3.50;2.40;;;24.20;45.50;;;;;;5114566;28;20861;-84
2021/08/07 12:36:38;;;;;;;44.60;6.43;;;23.40;45.90;;;;;;5113935;28;20493;-85
2021/08/07 12:39:07;;;;;;;10.30;3.03;;;23.00;47.30;;;;;;5115288;28;20525;-85
2021/08/07 12:41:34;;;;;;;7.47;3.20;;;22.80;47.80;;;;;;5114371;28;20433;-84
2021/08/07 12:44:01;;;;;;;28.70;3.70;;;23.00;47.30;;;;;;5114625;28;20533;-84
2021/08/07 12:46:28;;;;;;;4.17;2.80;;;23.50;47.50;;;;;;5114142;28;20491;-84
2021/08/07 12:48:59;;;;;;;4.67;3.00;;;23.50;47.60;;;;;;5114844;28;20481;-84
2021/08/07 12:51:28;;;;;;;4.30;2.53;;;23.10;47.50;;;;;;5115804;28;20967;-84
2021/08/07 12:53:56;;;;;;;13.50;3.20;;;22.80;47.50;;;;;;5134313;28;20437;-84
2021/08/07 12:56:27;;;;;;;4.40;2.80;;;23.00;47.30;;;;;;5135260;28;20480;-84